Time;durP1;ratioP1;P1;durP2;ratioP2;P2;SDS_P1;SDS_P2;PMS_P1;PMS_P2;Temp;Humidity;BMP_temperature;BMP_pressure;BME280_temperature;BME280_humidity;BME280_pressure;Samples;Min_cycle;Max_cycle;Signal;HPM_P1;HPM_P2
2023/08/16 00:00:24;;;;;;;0.20;0.10;;;;;;;25.68;100.00;101830.75;10417720;28;20382;-78
2023/08/16 00:05:26;;;;;;;0.00;0.00;;;;;;;25.60;100.00;101829.16;10401143;28;20447;-78
2023/08/16 00:10:28;;;;;;;0.17;0.17;;;;;;;25.03;100.00;101828.56;10417235;28;20049;-78
2023/08/16 00:15:29;;;;;;;0.00;0.00;;;;;;;25.69;100.00;101824.56;10418366;28;20051;-78
2023/08/16 00:20:31;;;;;;;0.00;0.00;;;;;;;25.74;100.00;101820.03;10416798;28;20049;-78
2023/08/16 00:25:32;;;;;;;0.10;0.08;;;;;;;25.53;100.00;101822.28;10416543;28;20046;-78
2023/08/16 00:30:34;;;;;;;0.03;0.00;;;;;;;26.05;100.00;101808.75;10416379;28;20045;-78
2023/08/16 00:35:36;;;;;;;0.00;0.00;;;;;;;25.17;100.00;101822.16;10416079;28;20488;-78
2023/08/16 00:40:37;;;;;;;0.00;0.00;;;;;;;25.73;100.00;101815.66;10416101;28;20516;-78
2023/08/16 00:45:42;;;;;;;0.00;0.00;;;;;;;24.92;100.00;101820.00;10399727;28;20057;-78
2023/08/16 00:50:45;;;;;;;0.22;0.00;;;;;;;24.76;100.00;101823.84;10415640;28;20083;-80
2023/08/16 00:55:47;;;;;;;0.00;0.00;;;;;;;24.42;100.00;101840.22;10415560;28;20045;-80
2023/08/16 01:00:49;;;;;;;0.00;0.00;;;;;;;23.95;100.00;101826.94;10415487;28;20049;-80
2023/08/16 01:05:50;;;;;;;0.00;0.00;;;;;;;25.25;100.00;101838.69;10415154;28;20049;-80
2023/08/16 01:10:59;;;;;;;0.00;0.00;;;;;;;24.82;100.00;101836.91;10415033;28;20041;-80
2023/08/16 01:16:07;;;;;;;0.20;0.20;;;;;;;25.18;100.00;101844.97;10414881;28;20060;-80
2023/08/16 01:21:13;;;;;;;0.00;0.00;;;;;;;25.18;100.00;101853.75;10398397;28;20133;-80
2023/08/16 01:26:27;;;;;;;0.28;0.15;;;;;;;23.63;100.00;101844.91;10398107;28;20045;-80
2023/08/16 01:31:29;;;;;;;0.38;0.20;;;;;;;23.63;100.00;101839.66;10414626;28;20091;-80
2023/08/16 01:36:31;;;;;;;0.00;0.00;;;;;;;24.97;100.00;101860.34;10414392;28;20140;-80
2023/08/16 01:41:41;;;;;;;0.08;0.08;;;;;;;23.89;100.00;101856.81;10397866;28;20136;-80
2023/08/16 01:46:43;;;;;;;0.20;0.10;;;;;;;23.90;100.00;101850.66;10397271;28;20493;-80
2023/08/16 01:51:45;;;;;;;0.00;0.00;;;;;;;23.99;100.00;101853.19;10413871;28;20528;-80
2023/08/16 01:56:47;;;;;;;0.00;0.00;;;;;;;24.32;100.00;101852.69;10397636;28;20140;-80
2023/08/16 02:01:49;;;;;;;0.10;0.00;;;;;;;24.68;100.00;101869.66;10413800;28;20049;-80
2023/08/16 02:06:51;;;;;;;0.00;0.00;;;;;;;23.39;100.00;101865.38;10413792;28;20056;-80
2023/08/16 02:11:53;;;;;;;0.13;0.10;;;;;;;24.82;100.00;101865.91;10413903;28;20048;-80
2023/08/16 02:16:55;;;;;;;0.10;0.10;;;;;;;23.23;100.00;101855.94;10397211;28;20048;-80
2023/08/16 02:21:56;;;;;;;0.00;0.00;;;;;;;23.44;100.00;101845.16;10413365;28;20050;-80
2023/08/16 02:26:58;;;;;;;0.00;0.00;;;;;;;23.29;100.00;101840.06;10397123;28;20045;-80
2023/08/16 02:32:00;;;;;;;0.05;0.00;;;;;;;23.33;100.00;101841.81;10396954;28;20041;-79
2023/08/16 02:37:01;;;;;;;0.30;0.20;;;;;;;22.88;100.00;101841.41;10397413;28;20056;-80
2023/08/16 02:42:03;;;;;;;0.10;0.10;;;;;;;22.99;100.00;101836.88;10413111;28;20041;-80
2023/08/16 02:47:05;;;;;;;0.13;0.13;;;;;;;23.72;100.00;101836.88;10412960;28;20052;-79
2023/08/16 02:52:06;;;;;;;0.00;0.00;;;;;;;23.71;100.00;101844.78;10396376;28;20056;-80
2023/08/16 02:57:08;;;;;;;0.30;0.17;;;;;;;23.03;100.00;101842.97;10399333;28;20149;-80
2023/08/16 03:02:09;;;;;;;0.00;0.00;;;;;;;23.02;100.00;101844.75;10420004;28;20434;-80
2023/08/16 03:07:12;;;;;;;0.10;0.10;;;;;;;23.48;100.00;101855.63;10420329;28;20493;-80
2023/08/16 03:12:13;;;;;;;0.43;0.20;;;;;;;23.84;100.00;101859.50;10403328;28;20064;-80
2023/08/16 03:17:15;;;;;;;0.00;0.00;;;;;;;23.01;100.00;101860.53;10419456;28;20056;-80
2023/08/16 03:22:17;;;;;;;0.00;0.00;;;;;;;23.34;100.00;101851.44;10420451;28;20068;-79
2023/08/16 03:27:19;;;;;;;0.00;0.00;;;;;;;24.05;100.00;101858.34;10419045;28;20092;-80
2023/08/16 03:32:21;;;;;;;0.00;0.00;;;;;;;23.94;100.00;101855.00;10418925;28;20049;-80
2023/08/16 03:37:22;;;;;;;0.70;0.22;;;;;;;22.98;100.00;101862.31;10418563;28;20045;-80
2023/08/16 03:42:24;;;;;;;0.15;0.15;;;;;;;23.77;100.00;101885.06;10418453;28;20452;-80
2023/08/16 03:47:26;;;;;;;0.17;0.10;;;;;;;23.84;100.00;101879.69;10418484;28;20120;-79
2023/08/16 03:52:29;;;;;;;0.20;0.20;;;;;;;23.92;100.00;101889.22;10418153;28;20119;-79
2023/08/16 03:57:31;;;;;;;0.30;0.10;;;;;;;23.34;100.00;101887.34;10401640;28;20069;-80
2023/08/16 04:02:33;;;;;;;0.10;0.10;;;;;;;23.11;100.00;101889.34;10401354;28;20053;-80
2023/08/16 04:07:34;;;;;;;0.22;0.22;;;;;;;23.51;100.00;101902.91;10400670;28;20053;-80
2023/08/16 04:12:36;;;;;;;0.17;0.17;;;;;;;24.42;100.00;101908.69;10417475;28;20068;-80
2023/08/16 04:17:38;;;;;;;0.20;0.10;;;;;;;23.25;100.00;101898.84;10400748;28;20049;-80
2023/08/16 04:22:40;;;;;;;0.00;0.00;;;;;;;23.10;100.00;101907.72;10416847;28;20049;-79
2023/08/16 04:27:42;;;;;;;0.00;0.00;;;;;;;22.92;100.00;101914.03;10416610;28;20076;-80
2023/08/16 04:32:44;;;;;;;0.20;0.10;;;;;;;23.14;100.00;101909.47;10400190;28;20069;-80
2023/08/16 04:37:46;;;;;;;0.35;0.35;;;;;;;23.44;100.00;101912.66;10416250;28;20045;-80
2023/08/16 04:42:48;;;;;;;0.20;0.20;;;;;;;23.26;100.00;101916.38;10399848;28;20072;-80
2023/08/16 04:47:49;;;;;;;0.20;0.20;;;;;;;23.14;100.00;101926.09;10399638;28;20056;-80
2023/08/16 04:52:52;;;;;;;1.25;0.40;;;;;;;22.71;100.00;101921.25;10415743;28;20073;-80
2023/08/16 04:57:57;;;;;;;0.13;0.13;;;;;;;23.09;100.00;101925.28;10415641;28;20048;-80
2023/08/16 05:02:59;;;;;;;0.35;0.20;;;;;;;22.72;100.00;101922.09;10399119;28;20049;-80
2023/08/16 05:08:01;;;;;;;0.15;0.15;;;;;;;23.35;100.00;101921.50;10398832;28;20045;-80
2023/08/16 05:13:03;;;;;;;0.63;0.20;;;;;;;24.29;100.00;101940.50;10374165;28;20096;-80
2023/08/16 05:18:04;;;;;;;0.38;0.28;;;;;;;24.31;100.00;101949.22;10406342;28;20138;-80
2023/08/16 05:23:06;;;;;;;0.68;0.43;;;;;;;23.24;100.00;101947.06;10390182;28;20045;-80
2023/08/16 05:28:08;;;;;;;0.00;0.00;;;;;;;23.67;100.00;101951.81;10406754;28;20042;-80
2023/08/16 05:33:09;;;;;;;0.00;0.00;;;;;;;23.75;100.00;101955.22;10406669;28;20061;-80
2023/08/16 05:38:11;;;;;;;0.00;0.00;;;;;;;23.32;100.00;101955.75;10406688;28;20404;-81
2023/08/16 05:43:13;;;;;;;0.05;0.05;;;;;;;23.77;100.00;101958.72;10373564;28;20049;-80
2023/08/16 05:48:14;;;;;;;0.17;0.10;;;;;;;23.99;100.00;101953.22;10373281;28;20042;-81
2023/08/16 05:53:16;;;;;;;0.28;0.28;;;;;;;23.91;100.00;101961.16;10389744;28;20049;-80
2023/08/16 05:58:18;;;;;;;0.43;0.20;;;;;;;24.38;100.00;101966.69;10406134;28;20041;-80
2023/08/16 06:03:19;;;;;;;0.15;0.15;;;;;;;24.54;100.00;101971.69;10389450;28;20054;-81
2023/08/16 06:08:21;;;;;;;0.20;0.03;;;;;;;24.18;100.00;101979.25;10373034;28;20378;-80
2023/08/16 06:13:23;;;;;;;0.20;0.10;;;;;;;24.16;100.00;101975.81;10374043;28;20485;-80
2023/08/16 06:18:25;;;;;;;0.10;0.10;;;;;;;24.34;100.00;101983.41;10405584;28;20053;-80
2023/08/16 06:23:26;;;;;;;0.55;0.30;;;;;;;24.02;100.00;101984.72;10372877;28;20101;-80
2023/08/16 06:28:28;;;;;;;0.50;0.17;;;;;;;24.07;100.00;101977.66;10372709;28;20042;-80
2023/08/16 06:33:30;;;;;;;0.20;0.20;;;;;;;23.96;100.00;101984.81;10412207;28;20064;-80
2023/08/16 06:38:32;;;;;;;0.17;0.10;;;;;;;24.35;100.00;101994.84;10380115;28;20481;-80
2023/08/16 06:43:33;;;;;;;0.20;0.17;;;;;;;23.91;100.00;101978.72;10379965;28;20049;-81
2023/08/16 06:48:35;;;;;;;0.03;0.03;;;;;;;23.95;100.00;101988.34;10379762;28;20046;-80
2023/08/16 06:53:39;;;;;;;0.00;0.00;;;;;;;23.94;100.00;101991.00;10412443;28;20060;-80
2023/08/16 06:58:41;;;;;;;0.63;0.20;;;;;;;24.13;100.00;101991.63;10379237;28;20061;-80
2023/08/16 07:03:43;;;;;;;0.45;0.35;;;;;;;25.51;100.00;101998.19;10412223;28;20225;-80
2023/08/16 07:08:45;;;;;;;0.00;0.00;;;;;;;25.26;100.00;101997.75;10379045;28;20056;-81
2023/08/16 07:13:47;;;;;;;0.60;0.60;;;;;;;24.95;100.00;102004.47;10378740;28;20054;-81
2023/08/16 07:18:49;;;;;;;0.20;0.10;;;;;;;24.71;100.00;102003.97;10378481;28;20045;-81
2023/08/16 07:23:54;;;;;;;0.68;0.32;;;;;;;25.97;100.00;102010.47;10410568;28;20046;-81
2023/08/16 07:28:55;;;;;;;0.22;0.22;;;;;;;27.20;100.00;102011.16;10378056;28;20392;-81
2023/08/16 07:33:57;;;;;;;0.28;0.17;;;;;;;27.77;100.00;102019.31;10411081;28;20050;-82
2023/08/16 07:38:58;;;;;;;0.47;0.25;;;;;;;26.65;100.00;102023.97;10377941;28;20053;-81
2023/08/16 07:44:00;;;;;;;0.65;0.20;;;;;;;26.18;100.00;102021.50;10376885;28;20088;-81
2023/08/16 07:49:02;;;;;;;0.93;0.80;;;;;;;26.34;100.00;102031.72;10377559;28;20141;-81
2023/08/16 07:54:04;;;;;;;0.15;0.10;;;;;;;26.01;100.00;102035.03;10394478;28;20050;-81
2023/08/16 07:59:06;;;;;;;0.20;0.20;;;;;;;25.15;100.00;102037.50;10376867;28;20440;-81
2023/08/16 08:04:07;;;;;;;0.22;0.20;;;;;;;25.69;100.00;102027.78;10414748;28;20050;-81
2023/08/16 08:09:09;;;;;;;0.47;0.32;;;;;;;25.30;100.00;102026.69;10417335;28;20057;-80
2023/08/16 08:14:12;;;;;;;0.17;0.17;;;;;;;27.05;100.00;102036.22;10417467;28;20052;-81
2023/08/16 08:19:13;;;;;;;0.22;0.10;;;;;;;28.19;100.00;102026.06;10416975;28;20132;-81
2023/08/16 08:24:15;;;;;;;0.13;0.13;;;;;;;28.40;100.00;102035.16;10418194;28;20428;-81
2023/08/16 08:29:18;;;;;;;1.60;0.45;;;;;;;28.62;100.00;102053.00;10416727;28;20043;-81
2023/08/16 08:34:20;;;;;;;0.00;0.00;;;;;;;27.98;100.00;102054.91;10417738;28;20461;-81
2023/08/16 08:39:21;;;;;;;0.00;0.00;;;;;;;27.73;100.00;102060.03;10416332;28;20045;-81
2023/08/16 08:44:24;;;;;;;0.00;0.00;;;;;;;26.44;100.00;102062.31;10416196;28;20046;-81
2023/08/16 08:49:26;;;;;;;0.98;0.60;;;;;;;26.68;100.00;102057.38;10415846;28;20052;-81
2023/08/16 08:54:28;;;;;;;0.13;0.10;;;;;;;28.83;100.00;102056.75;10415679;28;20057;-81
2023/08/16 08:59:33;;;;;;;0.00;0.00;;;;;;;26.79;100.00;102071.22;10415396;28;20042;-80
2023/08/16 09:04:36;;;;;;;0.28;0.15;;;;;;;26.94;100.00;102069.13;10415418;28;20065;-81
2023/08/16 09:09:38;;;;;;;0.10;0.10;;;;;;;27.54;100.00;102068.47;10416198;28;20499;-81
2023/08/16 09:14:39;;;;;;;0.00;0.00;;;;;;;27.08;100.00;102069.66;10398657;28;20056;-83
2023/08/16 09:19:45;;;;;;;0.38;0.20;;;;;;;28.39;100.00;102067.84;10398378;28;20041;-81
2023/08/16 09:24:48;;;;;;;0.00;0.00;;;;;;;28.13;100.00;102077.44;10414953;28;20076;-81
2023/08/16 09:29:54;;;;;;;0.43;0.30;;;;;;;28.95;100.00;102074.94;10415138;28;20046;-80
2023/08/16 09:34:57;;;;;;;0.10;0.10;;;;;;;28.65;100.00;102051.13;10415341;28;20073;-81
2023/08/16 09:40:04;;;;;;;0.20;0.20;;;;;;;27.51;100.00;102050.06;10414330;28;20049;-80
2023/08/16 09:45:06;;;;;;;0.05;0.03;;;;;;;28.34;100.00;102053.88;10415491;28;20403;-81
2023/08/16 09:50:09;;;;;;;0.00;0.00;;;;;;;29.21;100.00;102056.41;10414089;28;20052;-81
2023/08/16 09:55:11;;;;;;;0.08;0.08;;;;;;;27.29;100.00;102064.75;10414226;28;20042;-81
2023/08/16 10:00:16;;;;;;;0.13;0.10;;;;;;;28.43;100.00;102061.53;10414277;28;20061;-81
2023/08/16 10:05:18;;;;;;;0.10;0.10;;;;;;;30.18;100.00;102060.03;10417477;28;20053;-81
2023/08/16 10:10:22;;;;;;;0.08;0.05;;;;;;;29.32;100.00;102054.25;10421940;28;20037;-80
2023/08/16 10:15:27;;;;;;;0.20;0.20;;;;;;;30.05;100.00;102047.19;10423211;28;20090;-81
2023/08/16 10:20:32;;;;;;;0.43;0.10;;;;;;;29.29;100.00;102047.25;10421932;28;20401;-82
2023/08/16 10:25:38;;;;;;;0.25;0.25;;;;;;;30.27;100.00;102046.34;10421581;28;20408;-83
2023/08/16 10:30:42;;;;;;;0.20;0.20;;;;;;;29.63;100.00;102039.88;10422705;28;20033;-82
2023/08/16 10:36:05;;;;;;;0.30;0.30;;;;;;;31.27;100.00;102046.75;10407178;28;20073;-81
2023/08/16 10:41:11;;;;;;;0.10;0.10;;;;;;;30.30;100.00;102054.22;10404534;28;20099;-81
2023/08/16 10:46:33;;;;;;;0.00;0.00;;;;;;;32.28;100.00;102051.06;10421020;28;20060;-81
2023/08/16 10:51:47;;;;;;;0.38;0.38;;;;;;;30.52;100.00;102054.28;10420563;28;20041;-82
2023/08/16 10:56:48;;;;;;;0.05;0.05;;;;;;;31.79;100.00;102050.69;10421695;28;20400;-81
2023/08/16 11:01:53;;;;;;;0.10;0.10;;;;;;;32.04;100.00;102060.22;10420199;28;20045;-82
2023/08/16 11:06:58;;;;;;;0.03;0.00;;;;;;;30.48;100.00;102054.44;10420064;28;20550;-83
2023/08/16 11:12:08;;;;;;;1.23;0.13;;;;;;;30.84;100.00;102061.84;10419562;28;20389;-82
2023/08/16 11:17:13;;;;;;;0.00;0.00;;;;;;;30.27;100.00;102056.97;10418695;28;20057;-80
2023/08/16 11:22:15;;;;;;;0.10;0.10;;;;;;;30.55;100.00;102055.94;10402873;28;20140;-81
2023/08/16 11:27:22;;;;;;;0.15;0.15;;;;;;;32.39;100.00;102047.88;10419270;28;20407;-81
2023/08/16 11:32:38;;;;;;;0.00;0.00;;;;;;;30.57;100.00;102054.06;10419904;28;20045;-81
2023/08/16 11:37:43;;;;;;;0.90;0.32;;;;;;;31.43;100.00;102040.75;10418699;28;20416;-81
2023/08/16 11:42:44;;;;;;;0.20;0.10;;;;;;;32.22;100.00;102043.38;10420216;28;20407;-81
2023/08/16 11:47:50;;;;;;;0.10;0.10;;;;;;;31.07;100.00;102041.41;10419573;28;20049;-81
2023/08/16 11:52:56;;;;;;;0.50;0.40;;;;;;;32.41;100.00;102043.34;10418160;28;20100;-80
2023/08/16 11:58:08;;;;;;;0.20;0.20;;;;;;;31.33;100.00;102035.81;10418006;28;20037;-81
2023/08/16 12:03:11;;;;;;;0.10;0.10;;;;;;;31.19;100.00;102034.72;10417850;28;20152;-81
2023/08/16 12:08:17;;;;;;;0.10;0.10;;;;;;;31.28;100.00;102034.28;10417902;28;20049;-80
2023/08/16 12:13:20;;;;;;;0.20;0.20;;;;;;;32.21;100.00;102030.97;10418848;28;20045;-81
2023/08/16 12:18:22;;;;;;;1.42;0.20;;;;;;;31.00;100.00;102025.69;10416971;28;20535;-81
2023/08/16 12:23:24;;;;;;;1.75;0.30;;;;;;;31.40;100.00;102022.22;10418235;28;20050;-80
2023/08/16 12:28:26;;;;;;;0.25;0.13;;;;;;;30.85;100.00;102015.72;10417785;28;20049;-80
2023/08/16 12:33:27;;;;;;;0.90;0.47;;;;;;;30.94;100.00;102012.63;10416476;28;20037;-81
2023/08/16 12:38:29;;;;;;;0.50;0.40;;;;;;;30.22;100.00;102008.47;10416448;28;20453;-81
2023/08/16 12:43:31;;;;;;;0.00;0.00;;;;;;;30.02;100.00;101988.88;10400235;28;20509;-80
2023/08/16 12:48:38;;;;;;;0.20;0.08;;;;;;;31.34;100.00;101986.13;10416162;28;20111;-80
2023/08/16 12:53:41;;;;;;;0.52;0.43;;;;;;;31.47;100.00;101997.06;10399726;28;20092;-80
2023/08/16 12:58:43;;;;;;;0.00;0.00;;;;;;;30.68;100.00;102008.44;10417003;28;20523;-81
2023/08/16 13:03:47;;;;;;;0.00;0.00;;;;;;;32.61;100.00;102006.84;10415531;28;20404;-80
2023/08/16 13:08:52;;;;;;;0.08;0.08;;;;;;;30.89;100.00;101993.34;10415692;28;20049;-80
2023/08/16 13:14:09;;;;;;;0.15;0.10;;;;;;;30.52;100.00;101997.56;10416402;28;20045;-80
2023/08/16 13:19:12;;;;;;;0.10;0.10;;;;;;;30.07;100.00;101997.53;10419544;28;20048;-81
2023/08/16 13:24:25;;;;;;;0.00;0.00;;;;;;;30.50;100.00;101987.00;10425379;28;20045;-80
2023/08/16 13:29:31;;;;;;;0.20;0.10;;;;;;;30.99;100.00;101992.03;10414921;28;20038;-80
2023/08/16 13:34:52;;;;;;;0.00;0.00;;;;;;;30.21;100.00;101988.13;10414106;28;20042;-80
2023/08/16 13:39:57;;;;;;;0.10;0.10;;;;;;;30.52;100.00;101984.25;10413382;28;20052;-80
2023/08/16 13:45:01;;;;;;;0.10;0.05;;;;;;;30.10;100.00;101979.75;10414922;28;20042;-81
2023/08/16 13:50:19;;;;;;;0.00;0.00;;;;;;;29.26;100.00;101977.50;10416229;28;20045;-81
2023/08/16 13:55:21;;;;;;;0.25;0.10;;;;;;;29.56;100.00;101969.34;10397636;28;20060;-81
2023/08/16 14:00:24;;;;;;;0.20;0.20;;;;;;;29.68;100.00;101982.16;10397856;28;20481;-82
2023/08/16 14:05:26;;;;;;;0.00;0.00;;;;;;;28.79;100.00;101973.78;10413871;28;20049;-80
2023/08/16 14:10:27;;;;;;;0.10;0.00;;;;;;;29.02;100.00;101974.78;10397361;28;20049;-81
2023/08/16 14:15:29;;;;;;;0.20;0.10;;;;;;;29.62;100.00;101968.28;10413706;28;20052;-80
2023/08/16 14:20:31;;;;;;;0.10;0.10;;;;;;;29.47;100.00;101975.88;10397077;28;20041;-81
2023/08/16 14:25:32;;;;;;;0.13;0.13;;;;;;;29.51;100.00;101979.28;10413532;28;20061;-80
2023/08/16 14:30:34;;;;;;;0.10;0.10;;;;;;;29.87;100.00;101973.50;10414643;28;20042;-81
2023/08/16 14:35:36;;;;;;;0.00;0.00;;;;;;;29.99;100.00;101965.06;10413415;28;20057;-81
2023/08/16 14:40:38;;;;;;;0.10;0.08;;;;;;;30.03;100.00;101968.47;10413418;28;20136;-81
2023/08/16 14:45:41;;;;;;;0.10;0.10;;;;;;;29.78;100.00;101974.72;10414329;28;20079;-80
2023/08/16 14:50:42;;;;;;;0.00;0.00;;;;;;;29.07;100.00;101964.91;10415076;28;20057;-81
2023/08/16 14:55:44;;;;;;;0.10;0.10;;;;;;;30.18;100.00;101988.28;10420709;28;20055;-80
2023/08/16 15:00:46;;;;;;;0.00;0.00;;;;;;;29.30;100.00;101976.47;10421743;28;20046;-81
2023/08/16 15:05:48;;;;;;;0.10;0.10;;;;;;;29.43;100.00;101972.47;10420726;28;20087;-80
2023/08/16 15:10:49;;;;;;;0.05;0.05;;;;;;;28.78;100.00;101971.19;10403808;28;20053;-82
2023/08/16 15:15:51;;;;;;;0.17;0.10;;;;;;;29.54;100.00;101971.19;10402915;28;20079;-81
2023/08/16 15:20:53;;;;;;;0.00;0.00;;;;;;;29.09;100.00;101963.03;10419632;28;20037;-82
2023/08/16 15:25:57;;;;;;;0.00;0.00;;;;;;;29.33;100.00;101968.41;10420346;28;20520;-81
2023/08/16 15:30:59;;;;;;;0.00;0.00;;;;;;;29.72;100.00;101965.19;10420225;28;20042;-81
2023/08/16 15:36:00;;;;;;;0.10;0.10;;;;;;;29.74;100.00;101968.66;10418958;28;20148;-81
2023/08/16 15:41:02;;;;;;;0.05;0.00;;;;;;;30.50;100.00;101960.41;10419464;28;20070;-81
2023/08/16 15:46:05;;;;;;;0.03;0.03;;;;;;;29.58;100.00;101951.59;10418635;28;20539;-82
2023/08/16 15:51:07;;;;;;;0.00;0.00;;;;;;;29.26;100.00;101951.84;10419431;28;20041;-80
2023/08/16 15:56:09;;;;;;;0.10;0.10;;;;;;;28.92;100.00;101944.22;10418074;28;20055;-80
2023/08/16 16:01:11;;;;;;;0.10;0.00;;;;;;;29.26;100.00;101940.34;10418001;28;20124;-81
2023/08/16 16:06:12;;;;;;;0.15;0.10;;;;;;;30.00;100.00;101937.59;10417758;28;20041;-80
2023/08/16 16:11:14;;;;;;;0.00;0.00;;;;;;;30.26;100.00;101937.44;10418100;28;20073;-80
2023/08/16 16:16:16;;;;;;;0.35;0.15;;;;;;;29.92;100.00;101934.38;10417300;28;20188;-81
2023/08/16 16:21:20;;;;;;;0.00;0.00;;;;;;;29.30;100.00;101931.34;10417073;28;20558;-81
2023/08/16 16:26:22;;;;;;;0.57;0.28;;;;;;;29.12;100.00;101933.75;10416932;28;20492;-80
2023/08/16 16:31:24;;;;;;;0.00;0.00;;;;;;;30.25;100.00;101935.72;10400271;28;20045;-81
2023/08/16 16:36:27;;;;;;;0.10;0.10;;;;;;;30.13;100.00;101931.75;10416778;28;20041;-81
2023/08/16 16:41:29;;;;;;;1.58;0.35;;;;;;;29.63;100.00;101923.06;10417646;28;20120;-82
2023/08/16 16:46:31;;;;;;;0.10;0.10;;;;;;;30.29;100.00;101924.06;10417419;28;20046;-81
2023/08/16 16:51:32;;;;;;;0.00;0.00;;;;;;;30.30;100.00;101921.31;10417192;28;20427;-81
2023/08/16 16:56:34;;;;;;;0.00;0.00;;;;;;;29.37;100.00;101908.13;10399899;28;20249;-81
2023/08/16 17:01:35;;;;;;;0.00;0.00;;;;;;;29.81;100.00;101904.69;10399758;28;20042;-82
2023/08/16 17:06:37;;;;;;;0.25;0.10;;;;;;;29.20;100.00;101906.94;10415228;28;20045;-81
2023/08/16 17:11:39;;;;;;;0.52;0.20;;;;;;;28.70;100.00;101902.53;10416679;28;20523;-83
2023/08/16 17:16:40;;;;;;;0.10;0.00;;;;;;;28.69;100.00;101898.16;10415647;28;20037;-82
2023/08/16 17:21:42;;;;;;;0.00;0.00;;;;;;;29.13;100.00;101914.25;10415286;28;20048;-82
2023/08/16 17:26:44;;;;;;;0.03;0.00;;;;;;;28.97;100.00;101907.78;10415061;28;20061;-82
2023/08/16 17:31:45;;;;;;;0.00;0.00;;;;;;;28.56;100.00;101912.72;10414779;28;20045;-82
2023/08/16 17:36:47;;;;;;;0.00;0.00;;;;;;;28.54;100.00;101910.09;10415788;28;20049;-82
2023/08/16 17:41:48;;;;;;;0.20;0.20;;;;;;;29.22;100.00;101912.19;10415707;28;20057;-81
2023/08/16 17:46:50;;;;;;;0.00;0.00;;;;;;;28.78;100.00;101913.72;10413942;28;20049;-82
2023/08/16 17:51:52;;;;;;;0.00;0.00;;;;;;;28.68;100.00;101916.72;10414043;28;20449;-82
2023/08/16 17:56:54;;;;;;;0.40;0.40;;;;;;;28.79;100.00;101910.16;10414070;28;20060;-82
2023/08/16 18:01:55;;;;;;;0.00;0.00;;;;;;;28.63;100.00;101908.94;10397687;28;20069;-83
2023/08/16 18:06:59;;;;;;;0.10;0.10;;;;;;;27.93;100.00;101920.88;10414175;28;20041;-81
2023/08/16 18:12:01;;;;;;;0.00;0.00;;;;;;;28.50;100.00;101913.78;10413721;28;20087;-82
2023/08/16 18:17:03;;;;;;;0.00;0.00;;;;;;;28.52;100.00;101919.03;10397407;28;20397;-82
2023/08/16 18:22:05;;;;;;;0.00;0.00;;;;;;;28.29;100.00;101912.72;10414062;28;20044;-82
2023/08/16 18:27:06;;;;;;;0.10;0.10;;;;;;;28.17;100.00;101906.91;10416788;28;20049;-82
2023/08/16 18:32:08;;;;;;;0.40;0.10;;;;;;;27.39;100.00;101904.81;10421320;28;20046;-82
2023/08/16 18:37:10;;;;;;;0.38;0.20;;;;;;;27.28;100.00;101906.91;10421412;28;20056;-81
2023/08/16 18:42:11;;;;;;;0.13;0.00;;;;;;;27.54;100.00;101908.81;10421213;28;20197;-81
2023/08/16 18:47:13;;;;;;;0.30;0.20;;;;;;;27.20;100.00;101905.34;10421434;28;20055;-81
2023/08/16 18:52:15;;;;;;;0.00;0.00;;;;;;;27.60;100.00;101921.88;10422125;28;20045;-81
2023/08/16 18:57:16;;;;;;;0.38;0.22;;;;;;;27.59;100.00;101924.56;10420863;28;20045;-81
2023/08/16 19:02:18;;;;;;;0.00;0.00;;;;;;;27.30;100.00;101936.81;10423035;28;20042;-81
2023/08/16 19:07:19;;;;;;;0.20;0.10;;;;;;;27.08;100.00;101932.13;10404200;28;20057;-81
2023/08/16 19:12:22;;;;;;;0.00;0.00;;;;;;;27.24;100.00;101930.78;10420096;28;20506;-82
2023/08/16 19:17:24;;;;;;;0.90;0.22;;;;;;;27.37;100.00;101948.94;10420065;28;20087;-82
2023/08/16 19:22:26;;;;;;;0.00;0.00;;;;;;;27.21;100.00;101946.75;10420680;28;20471;-81
2023/08/16 19:27:38;;;;;;;0.00;0.00;;;;;;;27.11;100.00;101950.56;10420658;28;20048;-81
2023/08/16 19:32:40;;;;;;;0.00;0.00;;;;;;;27.11;100.00;101950.56;10419469;28;20500;-81
2023/08/16 19:37:41;;;;;;;0.10;0.05;;;;;;;27.27;100.00;101950.13;10419548;28;20481;-81
2023/08/16 19:42:43;;;;;;;0.32;0.32;;;;;;;27.11;100.00;101939.09;10419195;28;20037;-81
2023/08/16 19:47:45;;;;;;;0.00;0.00;;;;;;;26.87;100.00;101926.50;10420117;28;20042;-81
2023/08/16 19:52:53;;;;;;;0.20;0.17;;;;;;;27.06;100.00;101937.47;10418876;28;20046;-81
2023/08/16 19:57:55;;;;;;;0.10;0.10;;;;;;;26.62;100.00;101935.97;10418197;28;20107;-81
2023/08/16 20:02:57;;;;;;;0.10;0.10;;;;;;;26.51;100.00;101918.59;10417835;28;20075;-80
2023/08/16 20:07:58;;;;;;;0.00;0.00;;;;;;;26.86;100.00;101911.53;10417866;28;20576;-81
2023/08/16 20:13:00;;;;;;;0.20;0.10;;;;;;;26.66;100.00;101911.19;10418814;28;20049;-81
2023/08/16 20:18:02;;;;;;;0.00;0.00;;;;;;;26.35;100.00;101899.63;10417618;28;20052;-81
2023/08/16 20:23:05;;;;;;;0.20;0.20;;;;;;;26.51;100.00;101913.31;10418485;28;20042;-80
2023/08/16 20:28:06;;;;;;;0.00;0.00;;;;;;;26.25;100.00;101912.16;10419509;28;20053;-81
2023/08/16 20:33:08;;;;;;;0.15;0.00;;;;;;;26.21;100.00;101910.50;10419034;28;20045;-81
2023/08/16 20:38:10;;;;;;;0.10;0.10;;;;;;;26.29;100.00;101919.13;10418788;28;20049;-80
2023/08/16 20:43:12;;;;;;;0.10;0.10;;;;;;;26.64;100.00;101923.56;10417788;28;20045;-82
2023/08/16 20:48:14;;;;;;;0.00;0.00;;;;;;;26.45;100.00;101939.88;10416219;28;20037;-80
2023/08/16 20:53:15;;;;;;;0.00;0.00;;;;;;;25.98;100.00;101948.00;10416035;28;20084;-81
2023/08/16 20:58:17;;;;;;;0.00;0.00;;;;;;;26.55;100.00;101940.50;10417116;28;20489;-81
2023/08/16 21:03:19;;;;;;;0.03;0.03;;;;;;;26.09;100.00;101947.78;10416949;28;20120;-81
2023/08/16 21:08:20;;;;;;;0.63;0.35;;;;;;;25.97;100.00;101948.88;10416763;28;20049;-80
2023/08/16 21:13:22;;;;;;;0.40;0.32;;;;;;;25.47;100.00;101941.13;10416668;28;20033;-81
2023/08/16 21:18:23;;;;;;;0.25;0.22;;;;;;;25.75;100.00;101935.28;10415159;28;20060;-80
2023/08/16 21:23:25;;;;;;;0.00;0.00;;;;;;;25.52;100.00;101941.91;10416682;28;20076;-81
2023/08/16 21:28:27;;;;;;;0.22;0.10;;;;;;;25.78;100.00;101944.00;10416277;28;20045;-81
2023/08/16 21:33:28;;;;;;;0.08;0.08;;;;;;;25.02;100.00;101932.28;10416096;28;20038;-81
2023/08/16 21:38:30;;;;;;;0.00;0.00;;;;;;;25.30;100.00;101926.47;10415859;28;20089;-80
2023/08/16 21:43:32;;;;;;;0.10;0.10;;;;;;;25.11;100.00;101930.38;10398249;28;20045;-80
2023/08/16 21:48:34;;;;;;;0.20;0.17;;;;;;;24.82;100.00;101919.47;10414324;28;20057;-80
2023/08/16 21:53:35;;;;;;;0.10;0.00;;;;;;;25.43;100.00;101915.72;10414251;28;20034;-79
2023/08/16 21:58:37;;;;;;;0.10;0.08;;;;;;;24.75;100.00;101895.88;10415698;28;20042;-80
2023/08/16 22:03:39;;;;;;;0.00;0.00;;;;;;;25.40;100.00;101897.31;10419970;28;20040;-81
2023/08/16 22:08:41;;;;;;;0.10;0.10;;;;;;;25.19;100.00;101902.09;10423659;28;20465;-80
2023/08/16 22:13:42;;;;;;;0.10;0.10;;;;;;;24.79;100.00;101889.66;10423420;28;20072;-80
2023/08/16 22:18:44;;;;;;;0.00;0.00;;;;;;;24.49;100.00;101894.53;10422273;28;20059;-81
2023/08/16 22:23:45;;;;;;;0.00;0.00;;;;;;;25.14;100.00;101903.94;10423179;28;20068;-80
2023/08/16 22:28:55;;;;;;;0.03;0.03;;;;;;;25.18;100.00;101905.63;10422111;28;20056;-80
2023/08/16 22:33:56;;;;;;;;;;;;;;;25.19;100.00;101907.38;10405768;28;20049;-80
2023/08/16 22:38:58;;;;;;;0.28;0.13;;;;;;;25.14;100.00;101922.38;10421314;28;20387;-80
2023/08/16 22:44:00;;;;;;;0.00;0.00;;;;;;;25.28;100.00;101920.34;10421096;28;20088;-80
2023/08/16 22:49:01;;;;;;;0.00;0.00;;;;;;;25.13;100.00;101929.44;10420949;28;20056;-80
2023/08/16 22:54:03;;;;;;;0.22;0.20;;;;;;;24.26;100.00;101930.00;10421361;28;20041;-81